createdAt,value
2022-10-11T00:00:05.082Z,11.7
2022-10-11T00:01:04.217Z,11.7
2022-10-11T00:02:05.089Z,11.7
2022-10-11T00:03:05.101Z,11.7
2022-10-11T00:05:05.092Z,11.7
2022-10-11T00:06:05.623Z,11.7
2022-10-11T00:08:05.215Z,11.7
2022-10-11T00:09:05.319Z,11.7
2022-10-11T00:11:05.101Z,11.6
2022-10-11T00:13:05.104Z,11.6
2022-10-11T00:16:05.518Z,11.6
2022-10-11T00:17:05.094Z,11.6
2022-10-11T00:18:05.569Z,11.5
2022-10-11T00:19:05.142Z,11.5
2022-10-11T00:20:05.094Z,11.4
2022-10-11T00:21:05.118Z,11.4
2022-10-11T00:22:05.115Z,11.4
2022-10-11T00:23:05.440Z,11.4
2022-10-11T00:24:05.095Z,11.4
2022-10-11T00:25:04.165Z,11.4
2022-10-11T00:26:05.381Z,11.3
2022-10-11T00:27:05.285Z,11.4
2022-10-11T00:28:05.610Z,11.3
2022-10-11T00:32:05.093Z,11.4
2022-10-11T00:33:05.090Z,11.4
2022-10-11T00:34:05.092Z,11.4
2022-10-11T00:35:05.087Z,11.4
2022-10-11T00:36:04.518Z,11.4
2022-10-11T00:37:05.108Z,11.5
2022-10-11T00:40:05.092Z,11.4
2022-10-11T00:41:05.093Z,11.3
2022-10-11T00:42:05.104Z,11.3
2022-10-11T00:43:05.096Z,11.3
2022-10-11T00:45:05.096Z,11.2
2022-10-11T00:48:05.092Z,11.2
2022-10-11T00:49:05.286Z,11.2
2022-10-11T00:50:05.101Z,11.2
2022-10-11T00:51:05.755Z,11.2
2022-10-11T00:52:05.093Z,11.2
2022-10-11T00:53:05.097Z,11.2
2022-10-11T00:54:05.096Z,11.2
2022-10-11T00:57:05.127Z,11.2
2022-10-11T01:02:05.783Z,11.2
2022-10-11T01:06:06.100Z,11.2
2022-10-11T01:07:05.492Z,11.2
2022-10-11T01:09:05.150Z,11.2
2022-10-11T01:11:05.102Z,11.1
2022-10-11T01:12:05.093Z,11.1
2022-10-11T01:13:05.616Z,11.1
2022-10-11T01:14:05.101Z,11.1
2022-10-11T01:15:05.099Z,11.1
2022-10-11T01:16:05.458Z,11
2022-10-11T01:17:05.606Z,11
2022-10-11T01:18:05.367Z,11
2022-10-11T01:19:05.094Z,11.1
2022-10-11T01:20:05.095Z,11.1
2022-10-11T01:21:05.089Z,11.1
2022-10-11T01:23:05.098Z,11.2
2022-10-11T01:24:08.559Z,11.2
2022-10-11T01:25:05.191Z,11.2
2022-10-11T01:27:05.365Z,11.2
2022-10-11T01:31:04.175Z,11.1
2022-10-11T01:32:05.614Z,11.1
2022-10-11T01:33:05.104Z,11
2022-10-11T01:34:05.123Z,11
2022-10-11T01:35:05.100Z,11
2022-10-11T01:36:05.533Z,10.9
2022-10-11T01:37:05.098Z,10.9
2022-10-11T01:38:05.375Z,10.9
2022-10-11T01:39:05.104Z,10.8
2022-10-11T01:42:05.123Z,10.8
2022-10-11T01:44:05.093Z,10.7
2022-10-11T01:45:05.096Z,10.7
2022-10-11T01:46:05.521Z,10.7
2022-10-11T01:48:05.107Z,10.7
2022-10-11T01:49:05.102Z,10.8
2022-10-11T01:50:05.443Z,10.8
2022-10-11T01:52:04.176Z,10.8
2022-10-11T01:53:05.098Z,10.8
2022-10-11T01:55:09.601Z,10.8
2022-10-11T01:57:05.097Z,10.8
2022-10-11T01:58:05.101Z,10.8
2022-10-11T01:59:05.196Z,10.8
2022-10-11T02:00:05.097Z,10.8
2022-10-11T02:02:05.102Z,10.8
2022-10-11T02:03:05.101Z,10.8
2022-10-11T02:04:04.169Z,10.8
2022-10-11T02:05:05.122Z,10.8
2022-10-11T02:06:05.327Z,10.8
2022-10-11T02:08:05.103Z,10.8
2022-10-11T02:10:05.346Z,10.7
2022-10-11T02:11:05.575Z,10.7
2022-10-11T02:12:05.099Z,10.7
2022-10-11T02:13:05.097Z,10.7
2022-10-11T02:14:05.218Z,10.7
2022-10-11T02:16:05.320Z,10.8
2022-10-11T02:17:05.097Z,10.7
2022-10-11T02:18:05.108Z,10.7
2022-10-11T02:20:04.193Z,10.7
2022-10-11T02:21:04.184Z,10.7
2022-10-11T02:23:05.095Z,10.7
2022-10-11T02:24:05.109Z,10.7
2022-10-11T02:25:05.098Z,10.8
2022-10-11T02:26:05.484Z,10.8
2022-10-11T02:28:05.103Z,10.7
2022-10-11T02:29:05.479Z,10.7
2022-10-11T02:30:05.097Z,10.7
2022-10-11T02:31:05.098Z,10.6
2022-10-11T02:33:04.169Z,10.6
2022-10-11T02:34:05.102Z,10.6
2022-10-11T02:35:05.104Z,10.6
2022-10-11T02:37:05.201Z,10.5
2022-10-11T02:38:05.201Z,10.5
2022-10-11T02:39:05.102Z,10.5
2022-10-11T02:40:04.184Z,10.5
2022-10-11T02:41:05.096Z,10.5
2022-10-11T02:42:05.108Z,10.4
2022-10-11T02:43:05.101Z,10.4
2022-10-11T02:44:05.177Z,10.4
2022-10-11T02:45:05.106Z,10.4
2022-10-11T02:47:05.110Z,10.4
2022-10-11T02:48:05.105Z,10.4
2022-10-11T02:49:05.616Z,10.3
2022-10-11T02:51:05.322Z,10.3
2022-10-11T02:52:05.127Z,10.3
2022-10-11T02:54:04.181Z,10.3
2022-10-11T02:55:05.256Z,10.3
2022-10-11T02:56:05.457Z,10.3
2022-10-11T02:57:05.097Z,10.4
2022-10-11T02:58:05.146Z,10.4
2022-10-11T02:59:05.101Z,10.4
2022-10-11T03:01:05.093Z,10.3
2022-10-11T03:02:05.196Z,10.3
2022-10-11T03:03:05.309Z,10.2
2022-10-11T03:05:05.099Z,10.2
2022-10-11T03:07:05.121Z,10.2
2022-10-11T03:08:05.128Z,10.1
2022-10-11T03:09:05.174Z,10.1
2022-10-11T03:10:05.115Z,9.9
2022-10-11T03:12:05.103Z,9.9
2022-10-11T03:13:05.656Z,9.9
2022-10-11T03:14:05.566Z,9.8
2022-10-11T03:16:05.102Z,9.8
2022-10-11T03:17:31.040Z,9.8
2022-10-11T03:19:05.101Z,9.8
2022-10-11T03:20:05.098Z,9.8
2022-10-11T03:21:05.094Z,9.8
2022-10-11T03:22:05.107Z,9.7
2022-10-11T03:23:05.099Z,9.8
2022-10-11T03:24:05.204Z,9.8
2022-10-11T03:25:05.174Z,9.8
2022-10-11T03:26:05.332Z,9.9
2022-10-11T03:27:05.103Z,9.9
2022-10-11T03:28:05.104Z,9.8
2022-10-11T03:29:05.103Z,9.8
2022-10-11T03:33:05.097Z,9.7
2022-10-11T03:34:05.110Z,9.7
2022-10-11T03:35:05.105Z,9.7
2022-10-11T03:36:05.490Z,9.7
2022-10-11T03:37:05.102Z,9.6
2022-10-11T03:38:05.465Z,9.6
2022-10-11T03:39:05.119Z,9.6
2022-10-11T03:40:05.132Z,9.6
2022-10-11T03:41:05.146Z,9.5
2022-10-11T03:43:05.464Z,9.4
2022-10-11T03:44:05.584Z,9.4
2022-10-11T03:47:05.099Z,9.6
2022-10-11T03:48:05.097Z,9.6
2022-10-11T03:49:05.106Z,9.7
2022-10-11T03:50:05.099Z,9.8
2022-10-11T03:51:05.142Z,9.8
2022-10-11T03:52:05.105Z,9.9
2022-10-11T03:53:05.097Z,9.9
2022-10-11T03:54:05.103Z,9.8
2022-10-11T03:55:05.119Z,9.8
2022-10-11T03:57:05.105Z,9.6
2022-10-11T03:58:05.099Z,9.5
2022-10-11T03:59:05.219Z,9.4
2022-10-11T04:00:05.267Z,9.4
2022-10-11T04:01:05.559Z,9.4
2022-10-11T04:03:05.136Z,9.4
2022-10-11T04:05:05.175Z,9.4
2022-10-11T04:06:05.327Z,9.4
2022-10-11T04:07:05.121Z,9.4
2022-10-11T04:08:09.730Z,9.4
2022-10-11T04:09:05.123Z,9.3
2022-10-11T04:10:05.585Z,9.4
2022-10-11T04:12:05.101Z,9.5
2022-10-11T04:13:05.150Z,9.5
2022-10-11T04:14:05.103Z,9.6
2022-10-11T04:16:05.450Z,9.6
2022-10-11T04:17:05.107Z,9.6
2022-10-11T04:18:05.419Z,9.5
2022-10-11T04:19:05.098Z,9.5
2022-10-11T04:20:05.099Z,9.5
2022-10-11T04:21:05.461Z,9.5
2022-10-11T04:22:05.097Z,9.5
2022-10-11T04:24:05.106Z,9.6
2022-10-11T04:26:05.576Z,9.5
2022-10-11T04:27:05.108Z,9.5
2022-10-11T04:28:05.111Z,9.5
2022-10-11T04:29:05.105Z,9.5
2022-10-11T04:31:05.128Z,9.5
2022-10-11T04:34:05.100Z,9.6
2022-10-11T04:36:05.788Z,9.6
2022-10-11T04:37:05.096Z,9.6
2022-10-11T04:38:05.103Z,9.6
2022-10-11T04:39:05.214Z,9.5
2022-10-11T04:40:05.134Z,9.4
2022-10-11T04:41:05.101Z,9.3
2022-10-11T04:46:05.988Z,9.3
2022-10-11T04:47:05.543Z,9.3
2022-10-11T04:48:05.106Z,9.3
2022-10-11T04:50:05.107Z,9.3
2022-10-11T04:51:05.171Z,9.4
2022-10-11T04:52:05.160Z,9.4
2022-10-11T04:53:05.098Z,9.4
2022-10-11T04:55:05.475Z,9.4
2022-10-11T04:56:05.880Z,9.3
2022-10-11T04:57:05.102Z,9.2
2022-10-11T04:58:05.112Z,9.1
2022-10-11T04:59:05.411Z,8.9
2022-10-11T05:00:05.097Z,8.9
2022-10-11T05:01:05.096Z,8.9
2022-10-11T05:02:05.771Z,9
2022-10-11T05:03:05.100Z,9.1
2022-10-11T05:04:05.117Z,9
2022-10-11T05:06:06.113Z,9
2022-10-11T05:08:05.109Z,9.1
2022-10-11T05:09:05.506Z,9.1
2022-10-11T05:10:05.111Z,9.1
2022-10-11T05:11:05.162Z,9.1
2022-10-11T05:12:05.489Z,9
2022-10-11T05:15:05.106Z,8.8
2022-10-11T05:16:08.373Z,8.8
2022-10-11T05:17:04.173Z,8.8
2022-10-11T05:18:05.108Z,8.7
2022-10-11T05:20:05.420Z,8.8
2022-10-11T05:21:05.177Z,8.9
2022-10-11T05:22:05.103Z,8.9
2022-10-11T05:23:05.101Z,8.9
2022-10-11T05:24:05.585Z,8.9
2022-10-11T05:25:05.110Z,8.9
2022-10-11T05:26:05.703Z,9
2022-10-11T05:29:05.096Z,9
2022-10-11T05:30:05.106Z,9.1
2022-10-11T05:32:05.099Z,9.1
2022-10-11T05:34:05.100Z,9
2022-10-11T05:35:05.468Z,9
2022-10-11T05:36:05.546Z,9.1
2022-10-11T05:37:05.149Z,9.1
2022-10-11T05:39:05.109Z,9.2
2022-10-11T05:40:05.537Z,9.2
2022-10-11T05:41:05.109Z,9.2
2022-10-11T05:44:05.489Z,9.2
2022-10-11T05:45:05.552Z,9.2
2022-10-11T05:46:05.468Z,9.2
2022-10-11T05:47:05.102Z,9.2
2022-10-11T05:48:05.129Z,9.2
2022-10-11T05:50:05.178Z,9.2
2022-10-11T05:52:04.172Z,9.3
2022-10-11T05:53:05.106Z,9.3
2022-10-11T05:54:05.101Z,9.3
2022-10-11T05:55:05.095Z,9.3
2022-10-11T05:58:05.132Z,9.4
2022-10-11T05:59:05.100Z,9.4
2022-10-11T06:00:05.175Z,9.4
2022-10-11T06:02:05.121Z,9.4
2022-10-11T06:05:05.226Z,9.4
2022-10-11T06:07:05.104Z,9.4
2022-10-11T06:10:05.196Z,9.4
2022-10-11T06:11:09.118Z,9.5
2022-10-11T06:12:05.395Z,9.5
2022-10-11T06:13:06.391Z,9.5
2022-10-11T06:16:05.682Z,9.6
2022-10-11T06:17:05.102Z,9.6
2022-10-11T06:18:05.613Z,9.6
2022-10-11T06:20:05.117Z,9.7
2022-10-11T06:21:05.424Z,9.8
2022-10-11T06:22:05.588Z,9.8
2022-10-11T06:23:05.105Z,9.9
2022-10-11T06:24:05.108Z,10
2022-10-11T06:25:05.098Z,10
2022-10-11T06:26:06.042Z,10.1
2022-10-11T06:28:05.101Z,10.2
2022-10-11T06:30:05.107Z,10.3
2022-10-11T06:31:05.103Z,10.3
2022-10-11T06:32:05.099Z,10.4
2022-10-11T06:33:05.202Z,10.4
2022-10-11T06:34:05.095Z,10.5
2022-10-11T06:35:04.175Z,10.5
2022-10-11T06:36:05.472Z,10.5
2022-10-11T06:37:05.513Z,10.5
2022-10-11T06:38:05.108Z,10.4
2022-10-11T06:39:05.101Z,10.4
2022-10-11T06:41:05.336Z,10.5
2022-10-11T06:42:05.096Z,10.5
2022-10-11T06:43:05.106Z,10.6
2022-10-11T06:44:05.098Z,10.6
2022-10-11T06:45:05.098Z,10.7
2022-10-11T06:46:04.503Z,10.7
2022-10-11T06:47:05.123Z,10.9
2022-10-11T06:48:05.127Z,11
2022-10-11T06:50:05.288Z,11.3
2022-10-11T06:51:05.101Z,11.6
2022-10-11T06:52:05.163Z,11.9
2022-10-11T06:53:05.114Z,12.2
2022-10-11T06:54:05.103Z,12.7
2022-10-11T06:55:05.195Z,13.1
2022-10-11T06:57:05.099Z,13.9
2022-10-11T06:58:05.105Z,14.3
2022-10-11T07:00:07.968Z,15.1
2022-10-11T07:01:05.664Z,15.5
2022-10-11T07:03:05.096Z,16.2
2022-10-11T07:04:05.102Z,16.7
2022-10-11T07:05:05.401Z,17
2022-10-11T07:08:05.103Z,17.7
2022-10-11T07:09:05.103Z,17.8
2022-10-11T07:11:05.100Z,17.9
2022-10-11T07:13:05.118Z,18
2022-10-11T07:14:05.601Z,18.2
2022-10-11T07:16:05.665Z,18.7
2022-10-11T07:17:05.114Z,19
2022-10-11T07:18:05.104Z,19.3
2022-10-11T07:19:04.177Z,19.7
2022-10-11T07:20:05.106Z,20.2
2022-10-11T07:21:05.136Z,20.6
2022-10-11T07:22:05.264Z,20.9
2022-10-11T07:23:05.115Z,21.3
2022-10-11T07:24:05.113Z,21.5
2022-10-11T07:25:05.211Z,21.8
2022-10-11T07:26:05.590Z,22.1
2022-10-11T07:27:05.345Z,22.4
2022-10-11T07:29:05.212Z,23
2022-10-11T07:30:05.306Z,23.3
2022-10-11T07:31:05.131Z,23.8
2022-10-11T07:32:05.106Z,24.2
2022-10-11T07:35:05.114Z,25.1
2022-10-11T07:36:05.359Z,25.4
2022-10-11T07:37:05.110Z,25.8
2022-10-11T07:38:05.192Z,26
2022-10-11T07:39:05.114Z,26.2
2022-10-11T07:40:04.193Z,26.3
2022-10-11T07:42:05.105Z,25.9
2022-10-11T07:43:05.615Z,25.7
2022-10-11T07:44:05.111Z,25.8
2022-10-11T07:46:05.980Z,26.1
2022-10-11T07:47:10.297Z,26
2022-10-11T07:49:05.498Z,25.2
2022-10-11T07:50:05.609Z,25
2022-10-11T07:51:04.186Z,24.9
2022-10-11T07:53:05.251Z,25
2022-10-11T07:55:05.124Z,25.2
2022-10-11T07:56:05.404Z,25.1
2022-10-11T07:58:05.197Z,24.9
2022-10-11T08:01:05.663Z,25.3
2022-10-11T08:04:05.131Z,26.1
2022-10-11T08:05:05.566Z,26.3
2022-10-11T08:06:05.483Z,26.5
2022-10-11T08:08:05.117Z,27.2
2022-10-11T08:10:05.134Z,27.4
2022-10-11T08:12:05.125Z,27.2
2022-10-11T08:14:05.121Z,27.2
2022-10-11T08:16:05.691Z,27.8
2022-10-11T08:17:05.141Z,28.2
2022-10-11T08:18:05.176Z,28.5
2022-10-11T08:21:05.124Z,29.7
2022-10-11T08:22:05.643Z,30.1
2022-10-11T08:24:04.221Z,30.3
2022-10-11T08:27:05.573Z,30.8
2022-10-11T08:28:05.210Z,30.9
2022-10-11T08:29:05.460Z,31
2022-10-11T08:30:05.123Z,31.1
2022-10-11T08:31:05.375Z,31.3
2022-10-11T08:32:05.135Z,31.2
2022-10-11T08:33:08.557Z,30.7
2022-10-11T08:34:05.551Z,30.3
2022-10-11T08:37:05.565Z,29.8
2022-10-11T08:39:05.137Z,30.3
2022-10-11T08:41:05.321Z,30.7
2022-10-11T08:42:05.150Z,30.8
2022-10-11T08:45:10.918Z,31
2022-10-11T08:49:05.170Z,31.1
2022-10-11T08:50:05.552Z,31.4
2022-10-11T08:51:05.143Z,31.8
2022-10-11T08:53:05.148Z,32.4
2022-10-11T08:54:07.775Z,32.7
2022-10-11T08:56:05.497Z,33.1
2022-10-11T08:57:05.149Z,33
2022-10-11T08:58:05.149Z,32.7
2022-10-11T08:59:05.183Z,32.6
2022-10-11T09:00:05.146Z,32.4
2022-10-11T09:01:05.227Z,32.4
2022-10-11T09:02:05.634Z,32.5
2022-10-11T09:03:09.577Z,32.5
2022-10-11T09:04:05.352Z,32.3
2022-10-11T09:05:05.158Z,31.9
2022-10-11T09:06:04.761Z,31.7
2022-10-11T09:07:05.142Z,31.3
2022-10-11T09:08:05.168Z,30.7
2022-10-11T09:09:05.156Z,30.4
2022-10-11T09:10:05.393Z,30.2
2022-10-11T09:11:05.161Z,30.2
2022-10-11T09:12:05.704Z,30.2
2022-10-11T09:13:05.153Z,30.3
2022-10-11T09:14:05.191Z,30
2022-10-11T09:15:05.150Z,29.8
2022-10-11T09:17:05.165Z,29.3
2022-10-11T09:19:05.655Z,29.8
2022-10-11T09:20:05.575Z,29.9
2022-10-11T09:22:05.168Z,29.7
2022-10-11T09:23:05.188Z,29.6
2022-10-11T09:24:05.166Z,29.6
2022-10-11T09:27:05.300Z,29.5
2022-10-11T09:30:05.171Z,29
2022-10-11T09:32:05.518Z,28.9
2022-10-11T09:35:05.169Z,29.6
2022-10-11T09:36:05.480Z,29.8
2022-10-11T09:38:05.173Z,29.4
2022-10-11T09:39:06.785Z,29.3
2022-10-11T09:40:05.175Z,29.3
2022-10-11T09:42:05.550Z,28.8
2022-10-11T09:43:05.172Z,29
2022-10-11T09:44:05.181Z,29
2022-10-11T09:45:05.303Z,29.1
2022-10-11T09:46:05.464Z,29.3
2022-10-11T09:47:05.519Z,29.5
2022-10-11T09:48:05.178Z,29.7
2022-10-11T09:49:05.185Z,29.8
2022-10-11T09:50:05.178Z,29.8
2022-10-11T09:51:05.193Z,29.6
2022-10-11T09:52:05.177Z,29.5
2022-10-11T09:53:05.176Z,29.3
2022-10-11T09:54:05.181Z,29.7
2022-10-11T09:56:05.556Z,29.6
2022-10-11T09:58:05.181Z,29.9
2022-10-11T10:02:05.303Z,29.3
2022-10-11T10:04:05.214Z,28.9
2022-10-11T10:05:05.185Z,28.8
2022-10-11T10:06:05.814Z,28.6
2022-10-11T10:07:05.199Z,28.3
2022-10-11T10:08:05.528Z,27.8
2022-10-11T10:09:05.199Z,27.6
2022-10-11T10:13:05.274Z,27.4
2022-10-11T10:14:05.212Z,27.5
2022-10-11T10:15:05.185Z,27.6
2022-10-11T10:17:05.193Z,27.7
2022-10-11T10:18:05.188Z,27.6
2022-10-11T10:19:05.637Z,27.8
2022-10-11T10:20:05.215Z,27.8
2022-10-11T10:21:05.217Z,27.5
2022-10-11T10:24:04.264Z,27
2022-10-11T10:25:05.193Z,27.1
2022-10-11T10:26:05.433Z,26.9
2022-10-11T10:27:05.190Z,26.8
2022-10-11T10:28:04.279Z,26.7
2022-10-11T10:29:05.188Z,26.6
2022-10-11T10:30:07.157Z,26.4
2022-10-11T10:32:20.755Z,25.9
2022-10-11T10:33:05.649Z,25.6
2022-10-11T10:37:05.197Z,25.2
2022-10-11T10:38:05.681Z,25.1
2022-10-11T10:39:05.218Z,25.2
2022-10-11T10:41:05.687Z,24.9
2022-10-11T10:42:05.631Z,24.4
2022-10-11T10:43:05.210Z,24.5
2022-10-11T10:44:05.200Z,24.3
2022-10-11T10:45:09.713Z,24.2
2022-10-11T10:46:05.813Z,23.9
2022-10-11T10:47:05.685Z,23.7
2022-10-11T10:48:05.203Z,23.7
2022-10-11T10:49:41.177Z,23.7
2022-10-11T10:50:05.199Z,23.5
2022-10-11T10:52:05.209Z,23.3
2022-10-11T10:54:05.627Z,23.3
2022-10-11T10:55:05.663Z,23.3
2022-10-11T10:56:04.857Z,23.3
2022-10-11T11:00:05.205Z,24.1
2022-10-11T11:01:05.218Z,24.3
2022-10-11T11:02:28.223Z,24.2
2022-10-11T11:03:05.204Z,24.4
2022-10-11T11:04:05.221Z,24.5
2022-10-11T11:05:05.213Z,24.3
2022-10-11T11:06:05.660Z,24
2022-10-11T11:07:04.299Z,23.9
2022-10-11T11:08:05.407Z,23.8
2022-10-11T11:09:05.212Z,23.8
2022-10-11T11:10:05.205Z,23.7
2022-10-11T11:11:05.217Z,23.7
2022-10-11T11:12:05.257Z,23.6
2022-10-11T11:13:05.213Z,23
2022-10-11T11:14:05.626Z,23.1
2022-10-11T11:15:05.213Z,23.2
2022-10-11T11:16:05.874Z,23.4
2022-10-11T11:19:05.568Z,23.3
2022-10-11T11:20:05.320Z,23.5
2022-10-11T11:21:05.272Z,23.5
2022-10-11T11:22:05.392Z,23.5
2022-10-11T11:23:05.216Z,23.5
2022-10-11T11:24:05.508Z,23.6
2022-10-11T11:25:05.216Z,23.6
2022-10-11T11:26:05.384Z,23.7
2022-10-11T11:27:05.215Z,23.7
2022-10-11T11:28:05.524Z,23.5
2022-10-11T11:30:04.295Z,23.6
2022-10-11T11:31:05.552Z,23.5
2022-10-11T11:32:05.290Z,23.7
2022-10-11T11:34:05.711Z,23.5
2022-10-11T11:35:05.223Z,23.5
2022-10-11T11:37:05.223Z,23.4
2022-10-11T11:38:06.570Z,23.4
2022-10-11T11:40:05.225Z,23.3
2022-10-11T11:41:05.520Z,22.6
2022-10-11T11:42:05.234Z,22.4
2022-10-11T11:43:05.219Z,22.7
2022-10-11T11:44:05.230Z,22.9
2022-10-11T11:45:05.220Z,23
2022-10-11T11:46:05.270Z,23.1
2022-10-11T11:49:08.562Z,23.3
2022-10-11T11:50:05.551Z,22.9
2022-10-11T11:53:05.228Z,23.1
2022-10-11T11:54:05.229Z,23.2
2022-10-11T11:55:05.247Z,23.3
2022-10-11T11:56:05.514Z,23
2022-10-11T11:57:05.342Z,22.9
2022-10-11T11:58:07.289Z,23.1
2022-10-11T11:59:05.227Z,23.2
2022-10-11T12:00:05.320Z,23.4
2022-10-11T12:01:05.605Z,23.5
2022-10-11T12:04:05.243Z,23.5
2022-10-11T12:06:05.670Z,23.5
2022-10-11T12:07:15.865Z,23.5
2022-10-11T12:08:05.244Z,23.6
2022-10-11T12:12:05.267Z,24
2022-10-11T12:14:05.240Z,23.9
2022-10-11T12:16:05.246Z,23.8
2022-10-11T12:17:05.444Z,23.5
2022-10-11T12:18:05.230Z,23.5
2022-10-11T12:20:05.240Z,23.7
2022-10-11T12:21:05.523Z,23.9
2022-10-11T12:25:05.669Z,24.3
2022-10-11T12:26:05.281Z,24
2022-10-11T12:27:05.241Z,23.6
2022-10-11T12:28:05.239Z,23.5
2022-10-11T12:29:05.235Z,23.4
2022-10-11T12:31:05.834Z,23.1
2022-10-11T12:32:05.277Z,22.6
2022-10-11T12:35:05.345Z,21.5
2022-10-11T12:36:08.332Z,21.2
2022-10-11T12:37:06.765Z,20.9
2022-10-11T12:38:05.237Z,20.8
2022-10-11T12:39:05.241Z,20.5
2022-10-11T12:40:05.350Z,20.7
2022-10-11T12:41:05.445Z,21.1
2022-10-11T12:42:06.100Z,21.3
2022-10-11T12:44:05.650Z,21.4
2022-10-11T12:45:05.240Z,21.4
2022-10-11T12:46:05.498Z,21.4
2022-10-11T12:47:05.240Z,21.5
2022-10-11T12:48:05.245Z,21.2
2022-10-11T12:49:05.247Z,20.9
2022-10-11T12:50:05.251Z,20.9
2022-10-11T12:51:05.246Z,20.9
2022-10-11T12:52:05.279Z,20.8
2022-10-11T12:55:04.324Z,21.2
2022-10-11T12:56:04.721Z,21.4
2022-10-11T12:58:05.422Z,21.9
2022-10-11T12:59:05.375Z,22.2
2022-10-11T13:00:05.256Z,22.5
2022-10-11T13:02:05.253Z,22.7
2022-10-11T13:03:05.255Z,22.7
2022-10-11T13:05:05.253Z,22.2
2022-10-11T13:06:05.553Z,22
2022-10-11T13:07:06.872Z,21.9
2022-10-11T13:09:05.250Z,21.9
2022-10-11T13:10:05.297Z,22.1
2022-10-11T13:11:05.252Z,22.1
2022-10-11T13:12:05.272Z,22.2
2022-10-11T13:13:05.254Z,22.3
2022-10-11T13:14:05.610Z,22.5
2022-10-11T13:15:05.905Z,22.4
2022-10-11T13:16:04.706Z,22.6
2022-10-11T13:17:06.218Z,22.6
2022-10-11T13:18:05.521Z,22.6
2022-10-11T13:20:05.955Z,22.6
2022-10-11T13:21:05.609Z,22.4
2022-10-11T13:22:05.255Z,22
2022-10-11T13:23:05.259Z,22
2022-10-11T13:24:05.697Z,21.9
2022-10-11T13:25:05.332Z,22.1
2022-10-11T13:26:05.401Z,22.2
2022-10-11T13:27:06.003Z,22.2
2022-10-11T13:28:05.317Z,22.3
2022-10-11T13:29:05.270Z,22.3
2022-10-11T13:31:05.569Z,22.4
2022-10-11T13:32:05.365Z,22.5
2022-10-11T13:33:05.274Z,22.5
2022-10-11T13:34:05.267Z,22.5
2022-10-11T13:35:05.261Z,22.4
2022-10-11T13:36:04.781Z,22.2
2022-10-11T13:37:05.268Z,22.1
2022-10-11T13:38:05.259Z,21.9
2022-10-11T13:39:05.507Z,21.7
2022-10-11T13:40:05.291Z,21.5
2022-10-11T13:41:05.312Z,21.3
2022-10-11T13:42:05.606Z,21.3
2022-10-11T13:44:05.254Z,21
2022-10-11T13:45:05.262Z,21
2022-10-11T13:46:05.627Z,21
2022-10-11T13:47:05.275Z,21.1
2022-10-11T13:48:05.551Z,21
2022-10-11T13:49:05.261Z,21
2022-10-11T13:50:05.272Z,21
2022-10-11T13:51:05.267Z,21
2022-10-11T13:52:05.288Z,20.9
2022-10-11T13:53:05.368Z,20.7
2022-10-11T13:54:05.281Z,20.7
2022-10-11T13:55:05.270Z,20.7
2022-10-11T13:57:05.275Z,20.9
2022-10-11T13:58:05.281Z,20.9
2022-10-11T13:59:05.633Z,21
2022-10-11T14:00:05.581Z,21.1
2022-10-11T14:01:05.335Z,21
2022-10-11T14:02:05.834Z,21
2022-10-11T14:03:05.272Z,21
2022-10-11T14:04:05.491Z,21.1
2022-10-11T14:05:05.285Z,21
2022-10-11T14:06:05.582Z,21
2022-10-11T14:07:05.755Z,21
2022-10-11T14:08:06.053Z,20.9
2022-10-11T14:10:06.110Z,21
2022-10-11T14:11:06.773Z,21.1
2022-10-11T14:12:05.272Z,21.1
2022-10-11T14:13:05.279Z,21.2
2022-10-11T14:14:05.612Z,21.2
2022-10-11T14:15:05.273Z,21.1
2022-10-11T14:16:06.277Z,21.1
2022-10-11T14:17:05.280Z,21
2022-10-11T14:18:05.286Z,21
2022-10-11T14:19:05.279Z,21
2022-10-11T14:20:10.911Z,21.1
2022-10-11T14:22:05.769Z,21.2
2022-10-11T14:23:05.631Z,21
2022-10-11T14:24:05.870Z,20.9
2022-10-11T14:25:05.276Z,20.7
2022-10-11T14:26:06.398Z,20.7
2022-10-11T14:27:05.823Z,20.8
2022-10-11T14:28:05.273Z,21
2022-10-11T14:29:06.252Z,21.1
2022-10-11T14:31:06.484Z,21.3
2022-10-11T14:32:04.349Z,21.4
2022-10-11T14:33:05.525Z,21.4
2022-10-11T14:34:05.393Z,21.4
2022-10-11T14:35:05.700Z,21.3
2022-10-11T14:37:05.282Z,21.3
2022-10-11T14:38:05.739Z,21.2
2022-10-11T14:39:05.287Z,21.3
2022-10-11T14:40:05.669Z,21.3
2022-10-11T14:41:05.329Z,21.2
2022-10-11T14:42:05.291Z,21.1
2022-10-11T14:44:05.282Z,21.1
2022-10-11T14:45:05.573Z,21.1
2022-10-11T14:46:05.618Z,21.1
2022-10-11T14:47:05.295Z,21
2022-10-11T14:48:05.309Z,20.9
2022-10-11T14:49:05.376Z,20.9
2022-10-11T14:50:05.415Z,20.9
2022-10-11T14:52:05.404Z,21
2022-10-11T14:53:05.288Z,21
2022-10-11T14:55:05.691Z,21
2022-10-11T14:56:06.150Z,20.8
2022-10-11T14:57:05.286Z,20.7
2022-10-11T14:58:06.023Z,20.8
2022-10-11T14:59:05.291Z,20.8
2022-10-11T15:00:05.727Z,20.7
2022-10-11T15:01:05.362Z,20.7
2022-10-11T15:02:05.419Z,20.7
2022-10-11T15:03:05.980Z,20.8
2022-10-11T15:04:05.326Z,20.8
2022-10-11T15:06:05.582Z,20.9
2022-10-11T15:07:05.768Z,20.7
2022-10-11T15:08:06.144Z,20.6
2022-10-11T15:09:05.291Z,20.4
2022-10-11T15:10:05.304Z,20.4
2022-10-11T15:11:05.951Z,20.5
2022-10-11T15:12:05.285Z,20.6
2022-10-11T15:13:05.492Z,20.6
2022-10-11T15:15:05.291Z,20.6
2022-10-11T15:16:05.807Z,20.7
2022-10-11T15:18:05.295Z,20.7
2022-10-11T15:19:06.092Z,20.7
2022-10-11T15:20:05.778Z,20.8
2022-10-11T15:21:05.437Z,20.8
2022-10-11T15:22:05.659Z,20.7
2022-10-11T15:23:05.296Z,20.8
2022-10-11T15:24:05.505Z,20.7
2022-10-11T15:25:05.303Z,20.7
2022-10-11T15:26:05.895Z,20.6
2022-10-11T15:27:05.393Z,20.6
2022-10-11T15:28:05.294Z,20.6
2022-10-11T15:29:05.985Z,20.6
2022-10-11T15:30:05.710Z,20.5
2022-10-11T15:31:05.346Z,20.5
2022-10-11T15:32:05.319Z,20.5
2022-10-11T15:34:05.840Z,20.5
2022-10-11T15:35:05.702Z,20.5
2022-10-11T15:36:04.745Z,20.5
2022-10-11T15:37:04.376Z,20.4
2022-10-11T15:38:05.810Z,20.4
2022-10-11T15:39:05.337Z,20.4
2022-10-11T15:40:05.298Z,20.4
2022-10-11T15:41:05.722Z,20.3
2022-10-11T15:42:06.039Z,20.2
2022-10-11T15:43:05.998Z,20.2
2022-10-11T15:44:05.304Z,20.1
2022-10-11T15:45:05.306Z,20.1
2022-10-11T15:46:06.053Z,20.1
2022-10-11T15:47:05.965Z,20.1
2022-10-11T15:48:04.385Z,20.1
2022-10-11T15:49:06.808Z,20.1
2022-10-11T15:50:05.306Z,20.1
2022-10-11T15:51:05.364Z,19.9
2022-10-11T15:53:05.879Z,19.8
2022-10-11T15:54:05.333Z,19.9
2022-10-11T15:55:05.308Z,19.9
2022-10-11T15:57:06.111Z,19.9
2022-10-11T15:58:05.323Z,19.8
2022-10-11T16:00:04.385Z,19.7
2022-10-11T16:01:05.698Z,19.6
2022-10-11T16:02:05.969Z,19.3
2022-10-11T16:03:05.358Z,19.3
2022-10-11T16:04:05.667Z,19.4
2022-10-11T16:05:05.305Z,19.4
2022-10-11T16:06:06.019Z,19.4
2022-10-11T16:08:06.261Z,19.3
2022-10-11T16:09:05.309Z,19.3
2022-10-11T16:10:05.322Z,19.3
2022-10-11T16:11:05.309Z,19.4
2022-10-11T16:12:05.304Z,19.4
2022-10-11T16:13:05.308Z,19.4
2022-10-11T16:14:05.311Z,19.4
2022-10-11T16:15:05.319Z,19.4
2022-10-11T16:16:05.878Z,19.4
2022-10-11T16:18:05.315Z,19.4
2022-10-11T16:20:05.322Z,19.3
2022-10-11T16:22:04.390Z,19.3
2022-10-11T16:23:05.422Z,19.3
2022-10-11T16:24:05.318Z,19.3
2022-10-11T16:25:05.566Z,19.3
2022-10-11T16:27:05.316Z,19.2
2022-10-11T16:28:05.316Z,19.1
2022-10-11T16:30:05.321Z,19
2022-10-11T16:31:05.315Z,18.9
2022-10-11T16:32:05.317Z,18.9
2022-10-11T16:34:05.341Z,18.8
2022-10-11T16:35:05.428Z,18.7
2022-10-11T16:36:05.579Z,18.6
2022-10-11T16:37:05.339Z,18.6
2022-10-11T16:39:05.318Z,18.5
2022-10-11T16:40:05.318Z,18.5
2022-10-11T16:41:05.337Z,18.4
2022-10-11T16:43:07.729Z,18.3
2022-10-11T16:45:05.317Z,18.2
2022-10-11T16:46:05.667Z,18.2
2022-10-11T16:48:05.643Z,18
2022-10-11T16:49:05.318Z,18
2022-10-11T16:50:05.322Z,17.9
2022-10-11T16:51:05.321Z,17.8
2022-10-11T16:52:05.320Z,17.7
2022-10-11T16:53:05.382Z,17.6
2022-10-11T16:54:05.323Z,17.5
2022-10-11T16:55:05.698Z,17.5
2022-10-11T16:56:05.567Z,17.5
2022-10-11T16:57:05.323Z,17.4
2022-10-11T16:58:05.324Z,17.4
2022-10-11T16:59:05.333Z,17.4
2022-10-11T17:00:05.320Z,17.3
2022-10-11T17:02:05.328Z,17.2
2022-10-11T17:03:05.319Z,17.2
2022-10-11T17:04:05.597Z,17.1
2022-10-11T17:05:05.362Z,17
2022-10-11T17:07:05.326Z,16.8
2022-10-11T17:09:05.319Z,16.7
2022-10-11T17:12:05.406Z,16.6
2022-10-11T17:15:04.409Z,16.5
2022-10-11T17:16:06.208Z,16.5
2022-10-11T17:18:05.332Z,16.5
2022-10-11T17:19:05.333Z,16.5
2022-10-11T17:22:05.335Z,16.3
2022-10-11T17:23:05.329Z,16.2
2022-10-11T17:24:05.329Z,16.2
2022-10-11T17:25:05.329Z,16.2
2022-10-11T17:27:04.410Z,16.1
2022-10-11T17:28:05.325Z,16.1
2022-10-11T17:29:05.670Z,16
2022-10-11T17:30:05.325Z,16
2022-10-11T17:31:05.805Z,16
2022-10-11T17:32:05.321Z,16
2022-10-11T17:34:05.335Z,16
2022-10-11T17:35:05.745Z,16
2022-10-11T17:36:05.653Z,15.9
2022-10-11T17:38:06.373Z,15.9
2022-10-11T17:39:05.329Z,15.9
2022-10-11T17:40:05.808Z,15.8
2022-10-11T17:41:05.670Z,15.8
2022-10-11T17:43:06.168Z,15.8
2022-10-11T17:44:05.337Z,15.7
2022-10-11T17:45:05.327Z,15.7
2022-10-11T17:46:05.637Z,15.7